Time;durP1;ratioP1;P1;durP2;ratioP2;P2;SDS_P1;SDS_P2;PMS_P1;PMS_P2;Temp;Humidity;BMP_temperature;BMP_pressure;BME280_temperature;BME280_humidity;BME280_pressure;Samples;Min_cycle;Max_cycle;Signal;HPM_P1;HPM_P2
2023/03/01 00:02:12;;;;;;;;;;;13.80;78.30;;;;;;5056669;28;19908;-46
2023/03/01 00:04:38;;;;;;;;;;;13.70;78.30;;;;;;5074346;28;20279;-50
2023/03/01 00:07:03;;;;;;;;;;;13.70;78.40;;;;;;5073892;28;19909;-49
2023/03/01 00:09:29;;;;;;;;;;;13.70;78.50;;;;;;5074804;28;19908;-50
2023/03/01 00:11:54;;;;;;;;;;;13.60;78.50;;;;;;5074399;28;20422;-49
2023/03/01 00:14:20;;;;;;;;;;;13.60;78.60;;;;;;5074682;28;19915;-51
2023/03/01 00:16:45;;;;;;;;;;;13.60;78.60;;;;;;5074361;28;19966;-47
2023/03/01 00:19:12;;;;;;;;;;;13.60;78.70;;;;;;5074355;28;19920;-47
2023/03/01 00:21:38;;;;;;;;;;;13.60;78.70;;;;;;5074267;28;19917;-48
2023/03/01 00:24:03;;;;;;;;;;;13.60;78.60;;;;;;5073976;28;19915;-48
2023/03/01 00:26:29;;;;;;;;;;;13.70;78.60;;;;;;5074211;28;20309;-49
2023/03/01 00:28:56;;;;;;;;;;;13.80;78.40;;;;;;5074191;28;19999;-50
2023/03/01 00:31:22;;;;;;;;;;;13.90;78.10;;;;;;5056265;28;19909;-48
2023/03/01 00:33:51;;;;;;;;;;;14.10;77.80;;;;;;5056144;28;20015;-50
2023/03/01 00:36:17;;;;;;;;;;;14.10;77.50;;;;;;5073822;28;19913;-50
2023/03/01 00:38:44;;;;;;;;;;;14.20;77.40;;;;;;5073700;28;20252;-50
2023/03/01 00:41:11;;;;;;;;;;;14.20;77.30;;;;;;5073763;28;19916;-49
2023/03/01 00:43:36;;;;;;;;;;;14.20;77.40;;;;;;5073779;28;19982;-50
2023/03/01 00:46:03;;;;;;;;;;;14.10;77.40;;;;;;5074018;28;20335;-48
2023/03/01 00:48:29;;;;;;;;;;;14.10;77.50;;;;;;5073952;28;20003;-47
2023/03/01 00:50:54;;;;;;;;;;;14.00;77.60;;;;;;5073748;28;20009;-50
2023/03/01 00:53:20;;;;;;;;;;;13.90;77.80;;;;;;5073726;28;19916;-48
2023/03/01 00:55:45;;;;;;;;;;;13.90;77.90;;;;;;5073986;28;19915;-45
2023/03/01 00:58:11;;;;;;;;;;;13.80;78.00;;;;;;5056013;28;19908;-46
2023/03/01 01:00:36;;;;;;;;;;;13.80;78.10;;;;;;5073607;28;20027;-51
2023/03/01 01:03:02;;;;;;;;;;;13.80;78.20;;;;;;5073926;28;19916;-48
2023/03/01 01:05:27;;;;;;;;;;;13.70;78.30;;;;;;5074242;28;19915;-47
2023/03/01 01:07:52;;;;;;;;;;;13.70;78.90;;;;;;5055965;28;20343;-47
2023/03/01 01:10:18;;;;;;;;;;;13.70;78.40;;;;;;5073570;28;19919;-47
2023/03/01 01:12:44;;;;;;;;;;;13.70;78.50;;;;;;5073820;28;20431;-45
2023/03/01 01:15:12;;;;;;;;;;;13.60;78.50;;;;;;5073763;28;19948;-47
2023/03/01 01:17:38;;;;;;;;;;;13.60;78.50;;;;;;5075275;28;19961;-47
2023/03/01 01:20:04;;;;;;;;;;;13.70;78.60;;;;;;5077898;28;19916;-45
2023/03/01 01:22:29;;;;;;;;;;;13.70;78.50;;;;;;5077420;28;20007;-50
2023/03/01 01:24:55;;;;;;;;;;;13.70;78.50;;;;;;5059699;28;19908;-46
2023/03/01 01:27:20;;;;;;;;;;;13.80;78.30;;;;;;5077667;28;19933;-48
2023/03/01 01:29:45;;;;;;;;;;;13.90;78.10;;;;;;5077228;28;19912;-49
2023/03/01 01:32:11;;;;;;;;;;;14.00;77.80;;;;;;5077504;28;20062;-50
2023/03/01 01:34:36;;;;;;;;;;;14.10;77.60;;;;;;5077409;28;20359;-50
2023/03/01 01:37:02;;;;;;;;;;;14.10;77.50;;;;;;5077050;28;19915;-49
2023/03/01 01:39:28;;;;;;;;;;;14.10;77.50;;;;;;5077306;28;19921;-46
2023/03/01 01:41:53;;;;;;;;;;;14.10;77.50;;;;;;5077242;28;20025;-47
2023/03/01 01:44:19;;;;;;;;;;;14.00;77.50;;;;;;5077255;28;19970;-49
2023/03/01 01:46:50;;;;;;;;;;;14.00;77.60;;;;;;5059187;28;20412;-51
2023/03/01 01:49:21;;;;;;;;;;;13.90;77.70;;;;;;5042504;28;20364;-48
2023/03/01 01:51:48;;;;;;;;;;;13.90;77.80;;;;;;5077129;28;20011;-46
2023/03/01 01:54:20;;;;;;;;;;;13.80;77.90;;;;;;5059135;28;19914;-50
2023/03/01 01:56:47;;;;;;;;;;;13.80;78.00;;;;;;5059121;28;19912;-50
2023/03/01 01:59:13;;;;;;;;;;;13.70;78.10;;;;;;5059083;28;19916;-50
2023/03/01 02:01:39;;;;;;;;;;;13.80;78.30;;;;;;5076862;28;19916;-47
2023/03/01 02:04:06;;;;;;;;;;;13.70;78.30;;;;;;5076639;28;19908;-45
2023/03/01 02:06:37;;;;;;;;;;;13.70;78.40;;;;;;5076855;28;19913;-47
2023/03/01 02:09:07;;;;;;;;;;;13.70;78.50;;;;;;5076804;28;19931;-46
2023/03/01 02:11:33;;;;;;;;;;;13.70;78.60;;;;;;5076533;28;19908;-46
2023/03/01 02:13:58;;;;;;;;;;;13.70;78.60;;;;;;5077022;28;19909;-48
2023/03/01 02:16:25;;;;;;;;;;;13.60;78.60;;;;;;5076721;28;19940;-48
2023/03/01 02:18:51;;;;;;;;;;;13.60;78.60;;;;;;5058610;28;20360;-47
2023/03/01 02:21:16;;;;;;;;;;;13.70;78.70;;;;;;5076545;28;19920;-50
2023/03/01 02:23:41;;;;;;;;;;;13.60;78.60;;;;;;5076578;28;19958;-46
2023/03/01 02:26:07;;;;;;;;;;;13.70;78.50;;;;;;5076516;28;19917;-49
2023/03/01 02:28:34;;;;;;;;;;;13.90;78.20;;;;;;5075967;28;20306;-49
2023/03/01 02:33:45;;;;;;;;;;;14.20;77.20;;;;;;5076169;28;19931;-46
2023/03/01 02:36:21;;;;;;;;;;;14.30;76.90;;;;;;5076072;28;19908;-49
2023/03/01 02:38:48;;;;;;;;;;;14.30;76.80;;;;;;5076320;28;19912;-45
2023/03/01 02:41:15;;;;;;;;;;;14.30;76.80;;;;;;5075952;28;20310;-50
2023/03/01 02:43:40;;;;;;;;;;;14.30;76.90;;;;;;5076179;28;19908;-49
2023/03/01 02:46:08;;;;;;;;;;;14.20;77.00;;;;;;5076119;28;20015;-48
2023/03/01 02:48:40;;;;;;;;;;;14.10;77.10;;;;;;5075814;28;19934;-48
2023/03/01 02:51:25;;;;;;;;;;;14.10;77.20;;;;;;5076115;28;20386;-48
2023/03/01 02:53:57;;;;;;;;;;;14.00;77.40;;;;;;5058090;28;19908;-47
2023/03/01 02:56:22;;;;;;;;;;;13.90;77.50;;;;;;5075996;28;19954;-50
2023/03/01 02:58:51;;;;;;;;;;;13.90;77.60;;;;;;5076227;28;19909;-50
2023/03/01 03:01:20;;;;;;;;;;;13.90;77.70;;;;;;5075727;28;19921;-49
2023/03/01 03:03:46;;;;;;;;;;;13.90;77.90;;;;;;5075797;28;19908;-47
2023/03/01 03:06:12;;;;;;;;;;;13.80;77.90;;;;;;5075510;28;19915;-47
2023/03/01 03:08:37;;;;;;;;;;;13.90;78.10;;;;;;5075407;28;20012;-49
2023/03/01 03:11:03;;;;;;;;;;;13.80;78.10;;;;;;5075408;28;19915;-47
2023/03/01 03:13:28;;;;;;;;;;;13.80;78.10;;;;;;5057675;28;19916;-48
2023/03/01 03:15:55;;;;;;;;;;;13.90;78.20;;;;;;5075896;28;20007;-46
2023/03/01 03:18:20;;;;;;;;;;;13.80;78.10;;;;;;5075538;28;19908;-47
2023/03/01 03:20:46;;;;;;;;;;;13.90;78.00;;;;;;5075116;28;19920;-50
2023/03/01 03:23:12;;;;;;;;;;;14.00;77.80;;;;;;5075393;28;19912;-46
2023/03/01 03:25:38;;;;;;;;;;;14.10;77.50;;;;;;5075073;28;20010;-46
2023/03/01 03:28:09;;;;;;;;;;;14.10;77.40;;;;;;5074955;28;20046;-48
2023/03/01 03:30:36;;;;;;;;;;;14.20;77.30;;;;;;5057377;28;19916;-49
2023/03/01 03:33:01;;;;;;;;;;;14.10;77.30;;;;;;5074869;28;19915;-48
2023/03/01 03:35:32;;;;;;;;;;;14.10;77.40;;;;;;5075456;28;19908;-48
2023/03/01 03:38:01;;;;;;;;;;;14.10;77.50;;;;;;5075191;28;19908;-47
2023/03/01 03:40:28;;;;;;;;;;;14.00;77.60;;;;;;5074186;28;19940;-51
2023/03/01 03:42:53;;;;;;;;;;;14.00;77.70;;;;;;5057005;28;19916;-45
2023/03/01 03:45:19;;;;;;;;;;;13.90;77.70;;;;;;5074747;28;19909;-49
2023/03/01 03:47:44;;;;;;;;;;;13.80;77.80;;;;;;5074559;28;20421;-47
2023/03/01 03:50:11;;;;;;;;;;;13.90;78.00;;;;;;5074878;28;19947;-49
2023/03/01 03:52:36;;;;;;;;;;;13.80;78.10;;;;;;5074868;28;19912;-48
2023/03/01 03:55:02;;;;;;;;;;;13.80;78.20;;;;;;5074506;28;20377;-49
2023/03/01 03:57:28;;;;;;;;;;;13.70;78.20;;;;;;5057127;28;20386;-47
2023/03/01 03:59:53;;;;;;;;;;;13.70;78.30;;;;;;5074370;28;19970;-47
2023/03/01 04:02:21;;;;;;;;;;;13.70;78.30;;;;;;5074384;28;19999;-48
2023/03/01 04:04:49;;;;;;;;;;;13.70;78.10;;;;;;5074892;28;19913;-47
2023/03/01 04:07:15;;;;;;;;;;;13.70;78.40;;;;;;5074568;28;20371;-47
2023/03/01 04:09:42;;;;;;;;;;;13.70;78.50;;;;;;5074518;28;19962;-49
2023/03/01 04:12:08;;;;;;;;;;;13.60;78.40;;;;;;5056212;28;19909;-46
2023/03/01 04:14:33;;;;;;;;;;;13.70;78.40;;;;;;5056781;28;19994;-46
2023/03/01 04:16:59;;;;;;;;;;;13.80;78.30;;;;;;5056557;28;20004;-47
2023/03/01 04:19:24;;;;;;;;;;;13.90;77.90;;;;;;5074382;28;19908;-46
2023/03/01 04:21:50;;;;;;;;;;;14.10;77.60;;;;;;5074308;28;19971;-48
2023/03/01 04:24:16;;;;;;;;;;;14.20;77.30;;;;;;5074235;28;19908;-49
2023/03/01 04:26:41;;;;;;;;;;;14.20;77.10;;;;;;5074209;28;19908;-46
2023/03/01 04:29:07;;;;;;;;;;;14.20;77.10;;;;;;5074228;28;19916;-46
2023/03/01 04:31:32;;;;;;;;;;;14.20;77.20;;;;;;5074171;28;20306;-49
2023/03/01 04:33:59;;;;;;;;;;;14.10;77.20;;;;;;5074009;28;19961;-47
2023/03/01 04:36:26;;;;;;;;;;;14.10;77.30;;;;;;5074100;28;19913;-51
2023/03/01 04:38:52;;;;;;;;;;;14.00;77.40;;;;;;5074247;28;19920;-47
2023/03/01 04:41:19;;;;;;;;;;;14.00;77.50;;;;;;5074139;28;19921;-45
2023/03/01 04:43:44;;;;;;;;;;;13.90;77.50;;;;;;5074143;28;19962;-48
2023/03/01 04:46:14;;;;;;;;;;;13.90;77.70;;;;;;5074426;28;19912;-47
2023/03/01 04:48:41;;;;;;;;;;;13.80;77.80;;;;;;5074356;28;19913;-47
2023/03/01 04:51:08;;;;;;;;;;;13.80;77.90;;;;;;5073937;28;19958;-49
2023/03/01 04:53:35;;;;;;;;;;;13.80;77.60;;;;;;5073669;28;19999;-50
2023/03/01 04:56:01;;;;;;;;;;;13.80;78.00;;;;;;5074005;28;19931;-52
2023/03/01 04:58:26;;;;;;;;;;;13.70;78.10;;;;;;5073733;28;20347;-49
2023/03/01 05:00:52;;;;;;;;;;;13.70;78.20;;;;;;5073479;28;19921;-48
2023/03/01 05:03:18;;;;;;;;;;;13.70;78.30;;;;;;5073639;28;19909;-48
2023/03/01 05:05:45;;;;;;;;;;;13.70;78.30;;;;;;5055877;28;20004;-48
2023/03/01 05:08:17;;;;;;;;;;;13.70;78.30;;;;;;5073425;28;19909;-51
2023/03/01 05:10:46;;;;;;;;;;;13.70;78.30;;;;;;5073846;28;19909;-49
2023/03/01 05:13:13;;;;;;;;;;;13.80;78.30;;;;;;5073782;28;19909;-48
2023/03/01 05:15:39;;;;;;;;;;;13.80;78.20;;;;;;5073717;28;19959;-47
2023/03/01 05:18:10;;;;;;;;;;;13.90;78.00;;;;;;5073383;28;20271;-49
2023/03/01 05:20:36;;;;;;;;;;;14.00;77.70;;;;;;5055643;28;20005;-47
2023/03/01 05:23:04;;;;;;;;;;;14.10;77.50;;;;;;5055484;28;19908;-49
2023/03/01 05:25:32;;;;;;;;;;;14.10;77.50;;;;;;5073271;28;19916;-45
2023/03/01 05:27:58;;;;;;;;;;;14.00;77.50;;;;;;5055544;28;19991;-48
2023/03/01 05:30:24;;;;;;;;;;;14.00;77.50;;;;;;5073321;28;19909;-49
2023/03/01 05:32:55;;;;;;;;;;;13.90;77.60;;;;;;5073183;28;19909;-50
2023/03/01 05:35:21;;;;;;;;;;;13.90;77.60;;;;;;5073278;28;19909;-47
2023/03/01 05:37:47;;;;;;;;;;;13.90;77.70;;;;;;5073146;28;20011;-47
2023/03/01 05:40:17;;;;;;;;;;;13.80;77.80;;;;;;5072837;28;19920;-47
2023/03/01 05:42:43;;;;;;;;;;;13.80;77.90;;;;;;5072708;28;19915;-50
2023/03/01 05:45:09;;;;;;;;;;;13.80;78.00;;;;;;5055148;28;19908;-47
2023/03/01 05:47:35;;;;;;;;;;;13.70;78.10;;;;;;5073159;28;20338;-47
2023/03/01 05:50:01;;;;;;;;;;;13.70;78.00;;;;;;5073465;28;20382;-47
2023/03/01 05:52:26;;;;;;;;;;;13.70;78.20;;;;;;5072893;28;19912;-47
2023/03/01 05:54:51;;;;;;;;;;;13.70;78.20;;;;;;5073330;28;19916;-51
2023/03/01 05:57:17;;;;;;;;;;;13.70;78.30;;;;;;5073209;28;19931;-48
2023/03/01 05:59:42;;;;;;;;;;;13.70;78.30;;;;;;5073212;28;19909;-50
2023/03/01 06:02:08;;;;;;;;;;;13.70;78.30;;;;;;5072999;28;20022;-49
2023/03/01 06:04:33;;;;;;;;;;;13.70;78.20;;;;;;5075072;28;19991;-50
2023/03/01 06:06:59;;;;;;;;;;;13.80;78.10;;;;;;5076471;28;19962;-47
2023/03/01 06:09:25;;;;;;;;;;;13.90;77.90;;;;;;5077112;28;19909;-48
2023/03/01 06:11:51;;;;;;;;;;;14.10;77.60;;;;;;5076397;28;19909;-51
2023/03/01 06:14:16;;;;;;;;;;;14.10;77.30;;;;;;5042196;28;20259;-46
2023/03/01 06:16:42;;;;;;;;;;;14.20;77.20;;;;;;5076122;28;19984;-51
2023/03/01 06:19:07;;;;;;;;;;;14.20;77.10;;;;;;5076377;28;19913;-47
2023/03/01 06:21:33;;;;;;;;;;;14.20;77.10;;;;;;5058172;28;20304;-51
2023/03/01 06:23:58;;;;;;;;;;;14.10;77.10;;;;;;5075947;28;19915;-50
2023/03/01 06:26:23;;;;;;;;;;;14.10;77.20;;;;;;5058155;28;19909;-49
2023/03/01 06:28:49;;;;;;;;;;;14.10;77.40;;;;;;5076212;28;19952;-48
2023/03/01 06:31:15;;;;;;;;;;;14.00;77.40;;;;;;5075863;28;19915;-49
2023/03/01 06:33:40;;;;;;;;;;;14.00;77.50;;;;;;5075761;28;19915;-47
2023/03/01 06:36:06;;;;;;;;;;;13.90;77.60;;;;;;5058039;28;19909;-48
2023/03/01 06:38:31;;;;;;;;;;;13.80;77.70;;;;;;5075623;28;19909;-48
2023/03/01 06:40:57;;;;;;;;;;;13.80;77.80;;;;;;5076185;28;19921;-47
2023/03/01 06:43:23;;;;;;;;;;;13.80;78.00;;;;;;5057946;28;19951;-50
2023/03/01 06:45:49;;;;;;;;;;;13.70;78.00;;;;;;5057493;28;19909;-46
2023/03/01 06:48:14;;;;;;;;;;;13.70;78.10;;;;;;5075884;28;19909;-50
2023/03/01 06:50:39;;;;;;;;;;;13.70;78.20;;;;;;5075956;28;19935;-51
2023/03/01 06:53:05;;;;;;;;;;;13.70;78.20;;;;;;5075814;28;19908;-49
2023/03/01 06:55:31;;;;;;;;;;;13.70;78.30;;;;;;5075287;28;19913;-47
2023/03/01 06:57:57;;;;;;;;;;;13.60;78.30;;;;;;5075583;28;19999;-48
2023/03/01 07:00:23;;;;;;;;;;;13.60;78.30;;;;;;5075450;28;19920;-49
2023/03/01 07:02:48;;;;;;;;;;;13.60;78.40;;;;;;5075135;28;20285;-45
2023/03/01 07:05:14;;;;;;;;;;;13.60;78.40;;;;;;5075072;28;19915;-49
2023/03/01 07:07:39;;;;;;;;;;;13.70;78.40;;;;;;5075339;28;19909;-47
2023/03/01 07:10:05;;;;;;;;;;;13.90;78.00;;;;;;5075304;28;20355;-46
2023/03/01 07:12:31;;;;;;;;;;;14.20;77.30;;;;;;5075636;28;19908;-51
2023/03/01 07:14:56;;;;;;;;;;;14.60;76.30;;;;;;5074720;28;19920;-49
2023/03/01 07:17:22;;;;;;;;;;;14.80;75.70;;;;;;5075126;28;20283;-49
2023/03/01 07:19:47;;;;;;;;;;;14.90;75.40;;;;;;5074826;28;19999;-51
2023/03/01 07:22:13;;;;;;;;;;;14.80;75.30;;;;;;5075113;28;19923;-46
2023/03/01 07:24:38;;;;;;;;;;;14.80;75.30;;;;;;5074995;28;19915;-48
2023/03/01 07:27:03;;;;;;;;;;;14.70;75.50;;;;;;5074675;28;20018;-47
2023/03/01 07:29:29;;;;;;;;;;;14.70;75.70;;;;;;5075061;28;20306;-49
2023/03/01 07:31:54;;;;;;;;;;;14.60;75.90;;;;;;5057006;28;19915;-47
2023/03/01 07:34:20;;;;;;;;;;;14.50;76.10;;;;;;5074855;28;19912;-49
2023/03/01 07:36:45;;;;;;;;;;;14.40;76.20;;;;;;5056958;28;19909;-50
2023/03/01 07:39:11;;;;;;;;;;;14.30;76.40;;;;;;5074825;28;19943;-49
2023/03/01 07:41:37;;;;;;;;;;;14.30;76.60;;;;;;5074623;28;19974;-49
2023/03/01 07:44:02;;;;;;;;;;;14.20;76.80;;;;;;5074620;28;20279;-46
2023/03/01 07:46:28;;;;;;;;;;;14.20;76.90;;;;;;5074662;28;19958;-49
2023/03/01 07:48:53;;;;;;;;;;;14.10;77.10;;;;;;5074223;28;19916;-49
2023/03/01 07:51:19;;;;;;;;;;;14.10;77.20;;;;;;5056595;28;19909;-49
2023/03/01 07:53:48;;;;;;;;;;;14.00;77.30;;;;;;5074306;28;19969;-46
2023/03/01 07:56:14;;;;;;;;;;;14.00;77.50;;;;;;5074777;28;19909;-47
2023/03/01 07:58:42;;;;;;;;;;;13.90;77.50;;;;;;5056504;28;19908;-47
2023/03/01 08:01:08;;;;;;;;;;;13.90;77.60;;;;;;5074215;28;19921;-51
2023/03/01 08:03:34;;;;;;;;;;;13.80;77.70;;;;;;5074134;28;19912;-47
2023/03/01 08:06:01;;;;;;;;;;;13.80;77.80;;;;;;5074143;28;19908;-47
2023/03/01 08:08:27;;;;;;;;;;;13.80;77.90;;;;;;5074057;28;20007;-50
2023/03/01 08:10:52;;;;;;;;;;;13.80;78.00;;;;;;5074213;28;19971;-50
2023/03/01 08:13:22;;;;;;;;;;;13.80;78.00;;;;;;5074257;28;19909;-49
2023/03/01 08:15:48;;;;;;;;;;;13.80;77.90;;;;;;5073862;28;20308;-46
2023/03/01 08:18:13;;;;;;;;;;;13.90;77.70;;;;;;5074323;28;19996;-48
2023/03/01 08:20:39;;;;;;;;;;;14.10;77.40;;;;;;5073748;28;20007;-46
2023/03/01 08:23:04;;;;;;;;;;;14.20;77.10;;;;;;5073833;28;20364;-46
2023/03/01 08:25:30;;;;;;;;;;;14.20;76.90;;;;;;5073893;28;19938;-49
2023/03/01 08:27:55;;;;;;;;;;;14.20;76.80;;;;;;5073370;28;19908;-45
2023/03/01 08:30:23;;;;;;;;;;;14.20;76.90;;;;;;5073869;28;19938;-50
2023/03/01 08:32:49;;;;;;;;;;;14.20;76.90;;;;;;5074096;28;20304;-45
2023/03/01 08:35:15;;;;;;;;;;;14.20;77.00;;;;;;5074366;28;19908;-45
2023/03/01 08:37:41;;;;;;;;;;;14.20;77.10;;;;;;5073824;28;19909;-48
2023/03/01 08:40:08;;;;;;;;;;;14.20;77.20;;;;;;5073662;28;20383;-48
2023/03/01 08:42:34;;;;;;;;;;;14.10;77.20;;;;;;5055911;28;19917;-52
2023/03/01 08:44:59;;;;;;;;;;;14.10;77.40;;;;;;5073582;28;20329;-49
2023/03/01 08:47:26;;;;;;;;;;;14.10;77.50;;;;;;5074164;28;19909;-48
2023/03/01 08:49:51;;;;;;;;;;;14.00;77.60;;;;;;5073912;28;19908;-49
2023/03/01 08:52:17;;;;;;;;;;;14.00;77.70;;;;;;5073824;28;19974;-48
2023/03/01 08:54:42;;;;;;;;;;;13.90;78.20;;;;;;5073651;28;19912;-48
2023/03/01 08:57:09;;;;;;;;;;;13.90;77.90;;;;;;5073468;28;20429;-46
2023/03/01 08:59:37;;;;;;;;;;;13.90;77.90;;;;;;5073681;28;19934;-50
2023/03/01 09:02:03;;;;;;;;;;;13.80;77.90;;;;;;5055587;28;20248;-45
2023/03/01 09:04:28;;;;;;;;;;;13.80;78.00;;;;;;5055719;28;19916;-46
2023/03/01 09:06:54;;;;;;;;;;;13.70;78.10;;;;;;5073517;28;19995;-49
2023/03/01 09:09:20;;;;;;;;;;;13.70;78.60;;;;;;5073613;28;20003;-50
2023/03/01 09:11:45;;;;;;;;;;;13.80;78.20;;;;;;5073708;28;19908;-46
2023/03/01 09:14:11;;;;;;;;;;;13.80;78.00;;;;;;5055894;28;19916;-48
2023/03/01 09:16:37;;;;;;;;;;;13.90;77.90;;;;;;5073680;28;19912;-48
2023/03/01 09:19:03;;;;;;;;;;;14.00;77.60;;;;;;5073430;28;19957;-50
2023/03/01 09:21:29;;;;;;;;;;;14.10;77.30;;;;;;5073442;28;19969;-45
2023/03/01 09:23:55;;;;;;;;;;;14.20;77.10;;;;;;5073557;28;19913;-47
2023/03/01 09:26:22;;;;;;;;;;;14.20;77.00;;;;;;5073432;28;19955;-49
2023/03/01 09:28:48;;;;;;;;;;;14.20;77.00;;;;;;5073064;28;19944;-48
2023/03/01 09:31:14;;;;;;;;;;;14.20;77.00;;;;;;5055516;28;20375;-48
2023/03/01 09:33:41;;;;;;;;;;;14.20;77.10;;;;;;5073480;28;19916;-49
2023/03/01 09:36:08;;;;;;;;;;;14.20;77.20;;;;;;5073356;28;19912;-51
2023/03/01 09:38:33;;;;;;;;;;;14.20;77.30;;;;;;5055368;28;20007;-46
2023/03/01 09:40:59;;;;;;;;;;;14.10;77.30;;;;;;5076725;28;20019;-52
2023/03/01 09:43:30;;;;;;;;;;;14.10;77.40;;;;;;5059151;28;19908;-48
2023/03/01 09:45:59;;;;;;;;;;;14.10;77.40;;;;;;5076913;28;20387;-46
2023/03/01 09:48:27;;;;;;;;;;;14.10;77.60;;;;;;5077340;28;19908;-47
2023/03/01 09:50:52;;;;;;;;;;;14.00;77.70;;;;;;5077072;28;19912;-50
2023/03/01 09:53:22;;;;;;;;;;;14.00;77.70;;;;;;5076855;28;19915;-45
2023/03/01 09:56:00;;;;;;;;;;;13.90;77.80;;;;;;5077295;28;19945;-50
2023/03/01 09:58:36;;;;;;;;;;;13.90;78.00;;;;;;5076421;28;19908;-46
2023/03/01 10:01:10;;;;;;;;;;;13.80;78.00;;;;;;5076807;28;19921;-49
2023/03/01 10:03:39;;;;;;;;;;;13.80;78.10;;;;;;5076767;28;19961;-47
2023/03/01 10:06:14;;;;;;;;;;;13.80;78.10;;;;;;5076229;28;19948;-48
2023/03/01 10:08:58;;;;;;;;;;;13.80;78.20;;;;;;5076690;28;19909;-47
2023/03/01 10:11:26;;;;;;;;;;;13.80;78.20;;;;;;5076691;28;19948;-51
2023/03/01 10:14:03;;;;;;;;;;;13.80;78.20;;;;;;5076515;28;19956;-50
2023/03/01 10:16:37;;;;;;;;;;;13.80;78.20;;;;;;5076252;28;19908;-50
2023/03/01 10:19:03;;;;;;;;;;;13.90;78.10;;;;;;5076366;28;19908;-49
2023/03/01 10:21:32;;;;;;;;;;;13.90;77.80;;;;;;5076438;28;19939;-48
2023/03/01 10:24:19;;;;;;;;;;;14.00;77.70;;;;;;5076138;28;19970;-50
2023/03/01 10:26:48;;;;;;;;;;;14.00;77.60;;;;;;5076127;28;20359;-47
2023/03/01 10:29:14;;;;;;;;;;;14.00;77.60;;;;;;5076053;28;19908;-46
2023/03/01 10:31:44;;;;;;;;;;;14.00;77.60;;;;;;5076330;28;19912;-46
2023/03/01 10:34:11;;;;;;;;;;;14.00;77.60;;;;;;5076362;28;19955;-47
2023/03/01 10:36:37;;;;;;;;;;;14.00;78.20;;;;;;5076195;28;19920;-44
2023/03/01 10:39:10;;;;;;;;;;;14.00;77.70;;;;;;5075924;28;19921;-46
2023/03/01 10:41:40;;;;;;;;;;;14.00;77.80;;;;;;5075732;28;20328;-49
2023/03/01 10:44:11;;;;;;;;;;;14.00;77.80;;;;;;5075979;28;20054;-46
2023/03/01 10:46:37;;;;;;;;;;;14.00;77.80;;;;;;5076023;28;19981;-47
2023/03/01 10:49:14;;;;;;;;;;;14.00;77.90;;;;;;5076361;28;20359;-49
2023/03/01 10:51:41;;;;;;;;;;;13.90;78.00;;;;;;5057521;28;19916;-46
2023/03/01 10:54:16;;;;;;;;;;;13.90;78.00;;;;;;5075690;28;19915;-47
2023/03/01 10:56:49;;;;;;;;;;;13.90;78.10;;;;;;5075695;28;20250;-50
2023/03/01 10:59:21;;;;;;;;;;;13.90;78.20;;;;;;5075517;28;19955;-49
2023/03/01 11:02:00;;;;;;;;;;;13.90;78.20;;;;;;5075538;28;19928;-49
2023/03/01 11:04:25;;;;;;;;;;;13.90;78.20;;;;;;5075218;28;19908;-49
2023/03/01 11:06:57;;;;;;;;;;;13.90;78.00;;;;;;5074960;28;20395;-49
2023/03/01 11:09:24;;;;;;;;;;;14.00;77.90;;;;;;5075292;28;19908;-47
2023/03/01 11:11:54;;;;;;;;;;;14.10;77.70;;;;;;5075042;28;19909;-47
2023/03/01 11:14:24;;;;;;;;;;;14.20;77.40;;;;;;5075169;28;19916;-47
2023/03/01 11:16:58;;;;;;;;;;;14.20;77.30;;;;;;5057133;28;19951;-49
2023/03/01 11:19:23;;;;;;;;;;;14.20;77.30;;;;;;5075180;28;19916;-50
2023/03/01 11:21:56;;;;;;;;;;;14.20;77.20;;;;;;5075032;28;19916;-49
2023/03/01 11:24:25;;;;;;;;;;;14.20;77.30;;;;;;5057163;28;19908;-47
2023/03/01 11:26:52;;;;;;;;;;;14.10;77.30;;;;;;5057098;28;20343;-49
2023/03/01 11:29:27;;;;;;;;;;;14.10;77.50;;;;;;5075131;28;19909;-50
2023/03/01 11:31:55;;;;;;;;;;;14.10;77.60;;;;;;5075367;28;19913;-46
2023/03/01 11:34:27;;;;;;;;;;;14.00;77.60;;;;;;5057137;28;19952;-47
2023/03/01 11:36:54;;;;;;;;;;;14.00;77.70;;;;;;5056959;28;19948;-46
2023/03/01 11:39:23;;;;;;;;;;;14.00;77.80;;;;;;5074496;28;19920;-48
2023/03/01 11:41:52;;;;;;;;;;;13.90;77.80;;;;;;5074904;28;19916;-50
2023/03/01 11:44:30;;;;;;;;;;;13.90;77.90;;;;;;5074578;28;19909;-52
2023/03/01 11:47:08;;;;;;;;;;;13.90;78.00;;;;;;5074662;28;19972;-47
2023/03/01 11:49:39;;;;;;;;;;;13.90;78.00;;;;;;5074626;28;19935;-45
2023/03/01 11:52:23;;;;;;;;;;;13.90;78.10;;;;;;5074485;28;20368;-49
2023/03/01 11:55:09;;;;;;;;;;;13.80;78.20;;;;;;5074289;28;19912;-46
2023/03/01 11:57:53;;;;;;;;;;;13.80;78.20;;;;;;5075085;28;19913;-48
2023/03/01 12:00:19;;;;;;;;;;;13.90;78.30;;;;;;5074620;28;19916;-50
2023/03/01 12:02:44;;;;;;;;;;;13.90;78.10;;;;;;5073433;28;19924;-50
2023/03/01 12:05:14;;;;;;;;;;;14.10;77.80;;;;;;5074324;28;19917;-48
2023/03/01 12:07:42;;;;;;;;;;;14.30;77.40;;;;;;5074429;28;19908;-48
2023/03/01 12:10:22;;;;;;;;;;;14.40;76.90;;;;;;5056249;28;19915;-49
2023/03/01 12:13:17;;;;;;;;;;;14.50;76.60;;;;;;5073939;28;19944;-48
2023/03/01 12:15:50;;;;;;;;;;;14.60;76.60;;;;;;5019338;28;19909;-49
2023/03/01 12:18:22;;;;;;;;;;;14.50;76.50;;;;;;5073815;28;19991;-48
2023/03/01 12:20:50;;;;;;;;;;;14.50;76.60;;;;;;5073926;28;19924;-47
2023/03/01 12:23:31;;;;;;;;;;;14.50;76.80;;;;;;5074145;28;19954;-49
2023/03/01 12:25:59;;;;;;;;;;;14.40;76.80;;;;;;5073536;28;20356;-49
2023/03/01 12:28:33;;;;;;;;;;;14.30;76.90;;;;;;5073853;28;19915;-49
2023/03/01 12:31:01;;;;;;;;;;;14.30;77.10;;;;;;5074033;28;20007;-50
2023/03/01 12:33:42;;;;;;;;;;;14.20;77.20;;;;;;5074053;28;20393;-49
2023/03/01 12:36:26;;;;;;;;;;;14.20;77.30;;;;;;5073727;28;19909;-46
2023/03/01 12:38:51;;;;;;;;;;;14.20;77.50;;;;;;5073130;28;19912;-50
2023/03/01 12:41:27;;;;;;;;;;;14.20;77.60;;;;;;5073716;28;20341;-50
2023/03/01 12:44:31;;;;;;;;;;;14.10;78.10;;;;;;5073936;28;19908;-48
2023/03/01 12:47:19;;;;;;;;;;;14.10;77.70;;;;;;5011578;28;19914;-46
2023/03/01 12:49:47;;;;;;;;;;;14.10;77.90;;;;;;5011880;28;20013;-48
2023/03/01 12:52:13;;;;;;;;;;;14.10;77.90;;;;;;5050933;28;19991;-48
2023/03/01 12:54:38;;;;;;;;;;;14.00;78.00;;;;;;5073362;28;20374;-49
2023/03/01 12:57:39;;;;;;;;;;;14.00;78.00;;;;;;5073533;28;20410;-53
2023/03/01 13:00:10;;;;;;;;;;;14.00;78.00;;;;;;5040892;28;20322;-51
2023/03/01 13:02:39;;;;;;;;;;;14.00;78.00;;;;;;5055922;28;20217;-46
2023/03/01 13:05:14;;;;;;;;;;;14.10;77.90;;;;;;5073818;28;20356;-45
2023/03/01 13:07:45;;;;;;;;;;;14.20;77.70;;;;;;5073491;28;20003;-47
2023/03/01 13:10:13;;;;;;;;;;;14.20;77.50;;;;;;5073278;28;19931;-50
2023/03/01 13:12:57;;;;;;;;;;;14.20;77.40;;;;;;5073886;28;19920;-47
2023/03/01 13:15:23;;;;;;;;;;;14.20;77.40;;;;;;5077505;28;19962;-50
2023/03/01 13:17:49;;;;;;;;;;;14.20;77.50;;;;;;5059441;28;19909;-49
2023/03/01 13:20:16;;;;;;;;;;;14.20;77.60;;;;;;5077136;28;19908;-46
2023/03/01 13:22:42;;;;;;;;;;;14.10;77.60;;;;;;5076942;28;19912;-48
2023/03/01 13:25:15;;;;;;;;;;;14.10;77.70;;;;;;5077098;28;19962;-48
2023/03/01 13:27:41;;;;;;;;;;;14.10;77.70;;;;;;5077281;28;19909;-51
2023/03/01 13:30:26;;;;;;;;;;;14.10;77.90;;;;;;5077427;28;19913;-51
2023/03/01 13:33:12;;;;;;;;;;;14.00;77.90;;;;;;5059223;28;20000;-48
2023/03/01 13:35:41;;;;;;;;;;;14.10;78.00;;;;;;5076890;28;19916;-46
2023/03/01 13:38:27;;;;;;;;;;;14.00;78.00;;;;;;5076867;28;19923;-45
2023/03/01 13:40:52;;;;;;;;;;;14.00;78.10;;;;;;5076277;28;19924;-47
2023/03/01 13:43:34;;;;;;;;;;;14.00;78.20;;;;;;5076575;28;19915;-49
2023/03/01 13:46:01;;;;;;;;;;;13.90;78.20;;;;;;5076562;28;19909;-50
2023/03/01 13:48:28;;;;;;;;;;;13.90;78.30;;;;;;5076991;28;20367;-46
2023/03/01 13:50:57;;;;;;;;;;;13.90;78.30;;;;;;5076642;28;19913;-46
2023/03/01 13:53:24;;;;;;;;;;;13.90;78.30;;;;;;5076584;28;19909;-49
2023/03/01 13:56:09;;;;;;;;;;;13.90;78.40;;;;;;5076389;28;19930;-48
2023/03/01 13:58:55;;;;;;;;;;;14.00;78.30;;;;;;5076465;28;19913;-50
2023/03/01 14:01:22;;;;;;;;;;;14.00;78.10;;;;;;5076047;28;19932;-49
2023/03/01 14:03:47;;;;;;;;;;;14.10;78.00;;;;;;5076303;28;20380;-48
2023/03/01 14:06:18;;;;;;;;;;;14.20;77.80;;;;;;5076349;28;19908;-50
2023/03/01 14:08:44;;;;;;;;;;;14.20;77.60;;;;;;5076924;28;19912;-48
2023/03/01 14:11:09;;;;;;;;;;;14.20;77.60;;;;;;5076474;28;19916;-52
2023/03/01 14:13:38;;;;;;;;;;;14.30;77.50;;;;;;5076493;28;20282;-49
2023/03/01 14:16:10;;;;;;;;;;;14.20;77.50;;;;;;5058339;28;19915;-49
2023/03/01 14:18:52;;;;;;;;;;;14.20;77.60;;;;;;5076314;28;19909;-49
2023/03/01 14:21:18;;;;;;;;;;;14.10;77.70;;;;;;5076370;28;19917;-48
2023/03/01 14:23:43;;;;;;;;;;;14.10;77.70;;;;;;5076096;28;19995;-45
2023/03/01 14:26:11;;;;;;;;;;;14.10;77.90;;;;;;5075296;28;19909;-53